Time;durP1;ratioP1;P1;durP2;ratioP2;P2;SDS_P1;SDS_P2;PMS_P1;PMS_P2;Temp;Humidity;BMP_temperature;BMP_pressure;BME280_temperature;BME280_humidity;BME280_pressure;Samples;Min_cycle;Max_cycle;Signal;HPM_P1;HPM_P2
2023/09/28 00:02:53;;;;;;;8.75;5.93;;;;;;;;;;5095345;28;20254;-63
2023/09/28 00:05:22;;;;;;;10.48;5.63;;;;;;;;;;5096445;28;20183;-64
2023/09/28 00:07:49;;;;;;;8.43;6.25;;;;;;;;;;5088383;28;20196;-64
2023/09/28 00:10:16;;;;;;;9.88;5.80;;;;;;;;;;5102463;28;20176;-64
2023/09/28 00:12:45;;;;;;;6.88;5.40;;;;;;;;;;5092320;28;20235;-66
2023/09/28 00:15:11;;;;;;;7.63;5.97;;;;;;;;;;5088299;28;20176;-68
2023/09/28 00:17:38;;;;;;;10.95;6.65;;;;;;;;;;5088428;28;20214;-64
2023/09/28 00:20:18;;;;;;;6.97;6.28;;;;;;;;;;5088626;28;20674;-64
2023/09/28 00:22:51;;;;;;;7.40;5.70;;;;;;;;;;5087703;28;20195;-65
2023/09/28 00:25:19;;;;;;;8.00;6.00;;;;;;;;;;5092480;28;20218;-64
2023/09/28 00:27:47;;;;;;;6.88;6.07;;;;;;;;;;5087121;28;20196;-64
2023/09/28 00:30:18;;;;;;;6.38;5.78;;;;;;;;;;5070553;28;20233;-64
2023/09/28 00:32:44;;;;;;;6.93;5.63;;;;;;;;;;5082588;28;20200;-64
2023/09/28 00:35:10;;;;;;;6.15;5.40;;;;;;;;;;5077624;28;20238;-64
2023/09/28 00:37:36;;;;;;;8.38;6.05;;;;;;;;;;5085641;28;20188;-64
2023/09/28 00:40:36;;;;;;;7.28;5.10;;;;;;;;;;5086404;28;20240;-65
2023/09/28 00:42:55;;;;;;;9.38;5.72;;;;;;;;;;5082096;28;20192;-65
2023/09/28 00:45:22;;;;;;;9.00;5.72;;;;;;;;;;5087812;28;20603;-64
2023/09/28 00:47:50;;;;;;;6.68;4.75;;;;;;;;;;5088601;28;20199;-64
2023/09/28 00:50:17;;;;;;;8.60;5.45;;;;;;;;;;5097483;28;20325;-64
2023/09/28 00:52:46;;;;;;;9.93;5.07;;;;;;;;;;5088107;28;20248;-64
2023/09/28 00:55:14;;;;;;;9.18;5.93;;;;;;;;;;5068601;28;20180;-63
2023/09/28 00:57:42;;;;;;;8.15;5.25;;;;;;;;;;5090023;28;20196;-64
2023/09/28 01:00:26;;;;;;;6.65;4.88;;;;;;;;;;5091968;28;20225;-64
2023/09/28 01:02:54;;;;;;;5.88;5.20;;;;;;;;;;5089279;28;20224;-64
2023/09/28 01:05:20;;;;;;;7.07;5.35;;;;;;;;;;5086069;28;20185;-64
2023/09/28 01:07:47;;;;;;;9.98;5.68;;;;;;;;;;5084436;28;20282;-65
2023/09/28 01:10:18;;;;;;;10.07;5.32;;;;;;;;;;5087128;28;20667;-64
2023/09/28 01:12:44;;;;;;;12.68;5.45;;;;;;;;;;5090243;28;20184;-65
2023/09/28 01:15:12;;;;;;;8.05;5.57;;;;;;;;;;5084917;28;20234;-64
2023/09/28 01:17:39;;;;;;;6.82;5.55;;;;;;;;;;5088681;28;20200;-64
2023/09/28 01:20:34;;;;;;;9.93;6.00;;;;;;;;;;5090362;28;20203;-64
2023/09/28 01:22:59;;;;;;;7.25;5.75;;;;;;;;;;5077806;28;20325;-64
2023/09/28 01:25:26;;;;;;;8.18;5.93;;;;;;;;;;5090896;28;20267;-64
2023/09/28 01:27:52;;;;;;;8.10;5.70;;;;;;;;;;5089567;28;20563;-64
2023/09/28 01:30:18;;;;;;;8.20;5.85;;;;;;;;;;5090202;28;20241;-64
2023/09/28 01:32:44;;;;;;;9.13;5.65;;;;;;;;;;5065884;28;20326;-65
2023/09/28 01:35:11;;;;;;;8.82;6.18;;;;;;;;;;5084636;28;20268;-64
2023/09/28 01:37:49;;;;;;;7.72;5.97;;;;;;;;;;5090991;28;20184;-64
2023/09/28 01:40:16;;;;;;;11.48;6.30;;;;;;;;;;5087671;28;20192;-64
2023/09/28 01:42:42;;;;;;;7.28;5.95;;;;;;;;;;5087251;28;20653;-66
2023/09/28 01:45:08;;;;;;;8.73;5.93;;;;;;;;;;5087660;28;20188;-64
2023/09/28 01:47:34;;;;;;;12.50;6.55;;;;;;;;;;5088987;28;20192;-64
2023/09/28 01:50:00;;;;;;;8.13;5.97;;;;;;;;;;5085321;28;20208;-64
2023/09/28 01:52:26;;;;;;;8.23;5.97;;;;;;;;;;5086481;28;20605;-64
2023/09/28 01:54:51;;;;;;;8.88;6.28;;;;;;;;;;5090140;28;20267;-64
2023/09/28 01:57:17;;;;;;;8.60;5.90;;;;;;;;;;5089274;28;20210;-64
2023/09/28 01:59:43;;;;;;;8.15;5.78;;;;;;;;;;5083828;28;20647;-64
2023/09/28 02:02:09;;;;;;;8.30;5.80;;;;;;;;;;5084446;28;20267;-64
2023/09/28 02:04:37;;;;;;;8.82;5.78;;;;;;;;;;5088051;28;20609;-64
2023/09/28 02:07:04;;;;;;;7.88;5.80;;;;;;;;;;5088959;28;20271;-64
2023/09/28 02:09:30;;;;;;;8.88;5.45;;;;;;;;;;5090468;28;20886;-65
2023/09/28 02:11:56;;;;;;;7.93;5.65;;;;;;;;;;5089238;28;20212;-64
2023/09/28 02:14:22;;;;;;;7.90;5.72;;;;;;;;;;5089222;28;20212;-64
2023/09/28 02:16:49;;;;;;;7.65;5.68;;;;;;;;;;5095291;28;20200;-65
2023/09/28 02:19:16;;;;;;;12.23;5.38;;;;;;;;;;5089560;28;20643;-64
2023/09/28 02:21:42;;;;;;;8.43;4.95;;;;;;;;;;5091742;28;20290;-64
2023/09/28 02:24:08;;;;;;;9.25;5.15;;;;;;;;;;5084149;28;20196;-64
2023/09/28 02:26:34;;;;;;;8.63;5.03;;;;;;;;;;5091720;28;20207;-65
2023/09/28 02:28:59;;;;;;;6.28;5.20;;;;;;;;;;5091955;28;20194;-64
2023/09/28 02:31:25;;;;;;;8.18;5.10;;;;;;;;;;5092489;28;20180;-64
2023/09/28 02:33:51;;;;;;;7.05;5.30;;;;;;;;;;5087357;28;20675;-65
2023/09/28 02:36:16;;;;;;;6.03;4.78;;;;;;;;;;5087645;28;20184;-64
2023/09/28 02:38:43;;;;;;;10.30;4.88;;;;;;;;;;5090047;28;20557;-64
2023/09/28 02:41:18;;;;;;;9.07;5.13;;;;;;;;;;5087612;28;20284;-64
2023/09/28 02:43:44;;;;;;;8.07;4.72;;;;;;;;;;5084788;28;20234;-64
2023/09/28 02:46:10;;;;;;;5.63;4.80;;;;;;;;;;5089317;28;20643;-65
2023/09/28 02:48:35;;;;;;;10.88;4.68;;;;;;;;;;5087817;28;20195;-64
2023/09/28 02:51:34;;;;;;;6.50;4.93;;;;;;;;;;5071084;28;20524;-65
2023/09/28 02:53:52;;;;;;;6.18;4.60;;;;;;;;;;5078324;28;20188;-64
2023/09/28 02:56:18;;;;;;;6.53;4.93;;;;;;;;;;5082767;28;20191;-64
2023/09/28 02:58:46;;;;;;;6.32;4.78;;;;;;;;;;5088049;28;20191;-64
2023/09/28 03:01:12;;;;;;;9.25;5.00;;;;;;;;;;5088428;28;20243;-65
2023/09/28 03:03:38;;;;;;;7.03;5.00;;;;;;;;;;5074688;28;20240;-64
2023/09/28 03:06:04;;;;;;;6.93;4.75;;;;;;;;;;5086590;28;20407;-64
2023/09/28 03:08:31;;;;;;;7.13;4.78;;;;;;;;;;5089364;28;20196;-64
2023/09/28 03:10:57;;;;;;;7.65;4.65;;;;;;;;;;5086697;28;20188;-64
2023/09/28 03:13:22;;;;;;;6.32;5.15;;;;;;;;;;5086121;28;20724;-65
2023/09/28 03:15:49;;;;;;;7.85;5.40;;;;;;;;;;5087800;28;20188;-64
2023/09/28 03:18:14;;;;;;;5.85;4.63;;;;;;;;;;5084428;28;20180;-64
2023/09/28 03:20:44;;;;;;;7.22;5.15;;;;;;;;;;5089285;28;20303;-64
2023/09/28 03:23:11;;;;;;;7.72;4.75;;;;;;;;;;5087806;28;20196;-64
2023/09/28 03:25:37;;;;;;;5.50;5.00;;;;;;;;;;5087596;28;20191;-64
2023/09/28 03:28:03;;;;;;;8.88;5.35;;;;;;;;;;5087235;28;20264;-64
2023/09/28 03:30:28;;;;;;;6.38;4.88;;;;;;;;;;5088317;28;20267;-64
2023/09/28 03:32:56;;;;;;;6.40;5.25;;;;;;;;;;5084775;28;20645;-64
2023/09/28 03:35:21;;;;;;;9.23;5.70;;;;;;;;;;5088665;28;20484;-64
2023/09/28 03:37:47;;;;;;;8.55;5.30;;;;;;;;;;5088241;28;20184;-64
2023/09/28 03:40:14;;;;;;;10.85;5.43;;;;;;;;;;5086432;28;20191;-64
2023/09/28 03:42:46;;;;;;;7.72;5.30;;;;;;;;;;5080616;28;20650;-64
2023/09/28 03:45:16;;;;;;;8.52;5.38;;;;;;;;;;5083619;28;20188;-64
2023/09/28 03:47:43;;;;;;;6.43;4.88;;;;;;;;;;5070453;28;20268;-64
2023/09/28 03:50:12;;;;;;;7.43;5.25;;;;;;;;;;5084202;28;20681;-64
2023/09/28 03:52:38;;;;;;;9.13;5.68;;;;;;;;;;5085342;28;20199;-64
2023/09/28 03:55:05;;;;;;;8.35;5.32;;;;;;;;;;5082654;28;20616;-64
2023/09/28 03:57:30;;;;;;;9.15;6.03;;;;;;;;;;5094203;28;20500;-64
2023/09/28 03:59:56;;;;;;;7.93;5.53;;;;;;;;;;5088601;28;20199;-64
2023/09/28 04:02:27;;;;;;;7.07;5.65;;;;;;;;;;5091798;28;20626;-64
2023/09/28 04:04:52;;;;;;;8.23;5.72;;;;;;;;;;5070192;28;20188;-64
2023/09/28 04:07:18;;;;;;;8.05;5.35;;;;;;;;;;5072394;28;20310;-64
2023/09/28 04:09:43;;;;;;;9.63;5.60;;;;;;;;;;5088640;28;20184;-64
2023/09/28 04:12:09;;;;;;;10.05;5.88;;;;;;;;;;5077166;28;20181;-64
2023/09/28 04:14:34;;;;;;;8.40;5.45;;;;;;;;;;5086957;28;20184;-64
2023/09/28 04:17:00;;;;;;;8.80;5.57;;;;;;;;;;5076983;28;20243;-64
2023/09/28 04:19:26;;;;;;;9.43;5.55;;;;;;;;;;5075112;28;20636;-64
2023/09/28 04:21:51;;;;;;;10.10;5.47;;;;;;;;;;5085606;28;20215;-64
2023/09/28 04:24:17;;;;;;;9.98;5.95;;;;;;;;;;5091006;28;20640;-64
2023/09/28 04:26:43;;;;;;;8.40;5.88;;;;;;;;;;5090131;28;20195;-64
2023/09/28 04:29:09;;;;;;;6.40;5.63;;;;;;;;;;5085991;28;20708;-64
2023/09/28 04:31:34;;;;;;;8.20;6.05;;;;;;;;;;5086026;28;20215;-64
2023/09/28 04:34:00;;;;;;;11.32;6.00;;;;;;;;;;5090339;28;20667;-64
2023/09/28 04:36:25;;;;;;;6.97;5.75;;;;;;;;;;5093646;28;20284;-64
2023/09/28 04:38:51;;;;;;;12.27;5.85;;;;;;;;;;5085049;28;20237;-64
2023/09/28 04:41:17;;;;;;;7.95;6.20;;;;;;;;;;5079846;28;20213;-64
2023/09/28 04:43:43;;;;;;;10.90;6.47;;;;;;;;;;5092777;28;20207;-64
2023/09/28 04:46:08;;;;;;;8.18;6.03;;;;;;;;;;5085258;28;20184;-64
2023/09/28 04:48:34;;;;;;;8.68;6.00;;;;;;;;;;5083498;28;20679;-64
2023/09/28 04:50:59;;;;;;;9.93;6.18;;;;;;;;;;5071706;28;20596;-64
2023/09/28 04:53:26;;;;;;;8.90;5.85;;;;;;;;;;5081962;28;20436;-64
2023/09/28 04:55:52;;;;;;;9.18;7.05;;;;;;;;;;5089981;28;20196;-64
2023/09/28 04:58:17;;;;;;;7.93;6.43;;;;;;;;;;5089863;28;20500;-64
2023/09/28 05:00:42;;;;;;;12.30;6.30;;;;;;;;;;5091010;28;20323;-64
2023/09/28 05:03:08;;;;;;;9.48;6.63;;;;;;;;;;5090712;28;20227;-64
2023/09/28 05:05:33;;;;;;;9.45;6.55;;;;;;;;;;5090114;28;20192;-64
2023/09/28 05:07:59;;;;;;;10.00;6.90;;;;;;;;;;5086306;28;20192;-64
2023/09/28 05:10:25;;;;;;;9.60;6.32;;;;;;;;;;5086835;28;20215;-64
2023/09/28 05:12:50;;;;;;;9.88;6.35;;;;;;;;;;5092761;28;20206;-64
2023/09/28 05:15:15;;;;;;;10.13;6.63;;;;;;;;;;5086712;28;20631;-64
2023/09/28 05:17:41;;;;;;;14.05;7.43;;;;;;;;;;5070879;28;20264;-64
2023/09/28 05:20:08;;;;;;;8.15;6.38;;;;;;;;;;5086211;28;20265;-64
2023/09/28 05:22:35;;;;;;;10.68;7.03;;;;;;;;;;5089115;28;20212;-64
2023/09/28 05:25:00;;;;;;;13.35;7.00;;;;;;;;;;5084663;28;20314;-64
2023/09/28 05:27:25;;;;;;;9.77;6.90;;;;;;;;;;5076889;28;20220;-64
2023/09/28 05:29:51;;;;;;;14.57;7.80;;;;;;;;;;5083935;28;20192;-64
2023/09/28 05:32:16;;;;;;;11.25;8.20;;;;;;;;;;5079330;28;20640;-64
2023/09/28 05:34:41;;;;;;;9.73;7.70;;;;;;;;;;4377848;28;10000858;-64
2023/09/28 05:37:07;;;;;;;11.82;8.13;;;;;;;;;;5076832;28;20231;-64
2023/09/28 05:39:32;;;;;;;9.43;7.65;;;;;;;;;;5084586;28;20233;-64
2023/09/28 05:41:58;;;;;;;14.52;8.02;;;;;;;;;;5083470;28;20212;-64
2023/09/28 05:44:24;;;;;;;9.77;7.95;;;;;;;;;;5086837;28;20205;-64
2023/09/28 05:46:49;;;;;;;10.30;7.70;;;;;;;;;;5091127;28;20183;-64
2023/09/28 05:49:16;;;;;;;9.40;8.32;;;;;;;;;;5096458;28;20256;-64
2023/09/28 05:51:41;;;;;;;11.15;7.95;;;;;;;;;;5083565;28;20223;-64
2023/09/28 05:54:07;;;;;;;10.57;7.53;;;;;;;;;;5089291;28;20199;-64
2023/09/28 05:56:32;;;;;;;12.60;7.60;;;;;;;;;;5085190;28;20195;-64
2023/09/28 05:58:57;;;;;;;13.57;8.73;;;;;;;;;;5091943;28;20612;-64
2023/09/28 06:01:23;;;;;;;12.25;7.95;;;;;;;;;;5082466;28;20288;-64
2023/09/28 06:03:49;;;;;;;12.13;8.30;;;;;;;;;;5086747;28;20675;-64
2023/09/28 06:06:18;;;;;;;13.15;8.05;;;;;;;;;;5076054;28;20189;-64
2023/09/28 06:08:50;;;;;;;13.43;7.70;;;;;;;;;;5075081;28;20537;-64
2023/09/28 06:11:17;;;;;;;13.82;7.22;;;;;;;;;;5070299;28;20181;-64
2023/09/28 06:13:43;;;;;;;15.25;8.13;;;;;;;;;;5073044;28;20276;-64
2023/09/28 06:16:12;;;;;;;8.52;7.50;;;;;;;;;;5083955;28;20224;-64
2023/09/28 06:18:38;;;;;;;12.85;7.28;;;;;;;;;;5075563;28;20565;-64
2023/09/28 06:21:03;;;;;;;12.90;7.63;;;;;;;;;;5087624;28;20657;-64
2023/09/28 06:23:28;;;;;;;10.13;7.00;;;;;;;;;;5083314;28;20202;-64
2023/09/28 06:25:54;;;;;;;11.45;7.20;;;;;;;;;;5083443;28;20211;-64
2023/09/28 06:28:21;;;;;;;11.48;6.93;;;;;;;;;;5087643;28;20230;-64
2023/09/28 06:30:47;;;;;;;14.48;6.72;;;;;;;;;;5084491;28;20671;-64
2023/09/28 06:33:13;;;;;;;12.57;6.53;;;;;;;;;;5089746;28;20722;-64
2023/09/28 06:35:38;;;;;;;15.02;6.10;;;;;;;;;;5091894;28;20686;-64
2023/09/28 06:38:05;;;;;;;8.20;5.53;;;;;;;;;;5090112;28;20194;-64
2023/09/28 06:40:30;;;;;;;14.13;5.93;;;;;;;;;;5083155;28;20215;-64
2023/09/28 06:42:55;;;;;;;11.10;6.32;;;;;;;;;;5085550;28;20196;-64
2023/09/28 06:45:21;;;;;;;10.45;5.85;;;;;;;;;;5067326;28;20195;-64
2023/09/28 06:47:46;;;;;;;11.60;5.38;;;;;;;;;;5084996;28;20341;-64
2023/09/28 06:50:12;;;;;;;9.32;5.57;;;;;;;;;;5082417;28;21160;-64
2023/09/28 06:52:38;;;;;;;11.63;5.20;;;;;;;;;;5091296;28;20192;-65
2023/09/28 06:55:04;;;;;;;11.70;5.35;;;;;;;;;;5089755;28;20206;-64
2023/09/28 06:57:30;;;;;;;13.77;5.28;;;;;;;;;;5098087;28;20262;-65
2023/09/28 06:59:55;;;;;;;14.98;5.03;;;;;;;;;;5097287;28;20188;-65
2023/09/28 07:02:21;;;;;;;11.65;4.95;;;;;;;;;;5083443;28;20220;-64
2023/09/28 07:04:46;;;;;;;13.75;4.40;;;;;;;;;;5083278;28;20184;-65
2023/09/28 07:07:16;;;;;;;11.98;4.45;;;;;;;;;;5080434;28;20242;-65
2023/09/28 07:09:43;;;;;;;10.90;4.28;;;;;;;;;;5083120;28;20325;-65
2023/09/28 07:12:10;;;;;;;7.38;4.07;;;;;;;;;;5084920;28;20177;-65
2023/09/28 07:14:36;;;;;;;18.20;4.82;;;;;;;;;;5091033;28;20184;-64
2023/09/28 07:17:01;;;;;;;14.98;4.95;;;;;;;;;;5062082;28;20254;-64
2023/09/28 07:19:27;;;;;;;13.05;4.38;;;;;;;;;;5089974;28;20209;-65
2023/09/28 07:21:53;;;;;;;15.38;4.47;;;;;;;;;;5070939;28;20219;-65
2023/09/28 07:24:19;;;;;;;16.98;4.63;;;;;;;;;;5085517;28;20192;-65
2023/09/28 07:26:46;;;;;;;17.33;4.35;;;;;;;;;;5089651;28;20578;-65
2023/09/28 07:29:11;;;;;;;17.98;4.90;;;;;;;;;;5086941;28;20203;-65
2023/09/28 07:31:37;;;;;;;14.48;4.50;;;;;;;;;;5081376;28;20176;-65
2023/09/28 07:34:02;;;;;;;15.13;4.47;;;;;;;;;;5089853;28;20256;-65
2023/09/28 07:36:28;;;;;;;12.23;3.47;;;;;;;;;;5089251;28;20184;-65
2023/09/28 07:38:54;;;;;;;12.73;4.00;;;;;;;;;;5086278;28;20240;-64
2023/09/28 07:41:20;;;;;;;11.88;3.78;;;;;;;;;;5077685;28;20203;-64
2023/09/28 07:43:45;;;;;;;15.23;4.40;;;;;;;;;;5084048;28;20647;-64
2023/09/28 07:46:10;;;;;;;17.05;4.50;;;;;;;;;;5059509;28;20181;-64
2023/09/28 07:48:36;;;;;;;18.33;4.22;;;;;;;;;;5085080;28;20195;-65
2023/09/28 07:51:01;;;;;;;17.75;4.88;;;;;;;;;;5079277;28;20196;-65
2023/09/28 07:53:28;;;;;;;14.10;4.72;;;;;;;;;;5082819;28;20199;-65
2023/09/28 07:55:53;;;;;;;24.40;5.20;;;;;;;;;;5084226;28;20219;-67
2023/09/28 07:58:18;;;;;;;20.15;5.00;;;;;;;;;;5077808;28;20209;-65
2023/09/28 08:00:44;;;;;;;25.23;4.25;;;;;;;;;;5092731;28;20230;-65
2023/09/28 08:03:09;;;;;;;19.33;5.03;;;;;;;;;;5102385;28;20223;-64
2023/09/28 08:05:34;;;;;;;19.88;4.57;;;;;;;;;;5093677;28;20187;-65
2023/09/28 08:08:00;;;;;;;21.65;5.28;;;;;;;;;;5093092;28;20715;-65
2023/09/28 08:10:25;;;;;;;23.92;4.15;;;;;;;;;;5102380;28;20188;-65
2023/09/28 08:12:50;;;;;;;22.10;4.50;;;;;;;;;;5098834;28;20191;-65
2023/09/28 08:15:16;;;;;;;22.30;4.20;;;;;;;;;;5090696;28;20203;-65
2023/09/28 08:17:45;;;;;;;22.08;4.00;;;;;;;;;;5092308;28;20223;-65
2023/09/28 08:20:11;;;;;;;20.35;4.10;;;;;;;;;;5096243;28;20295;-67
2023/09/28 08:22:36;;;;;;;21.20;4.07;;;;;;;;;;5092209;28;20288;-65
2023/09/28 08:25:05;;;;;;;29.95;4.70;;;;;;;;;;5086380;28;20266;-65
2023/09/28 08:27:30;;;;;;;19.45;4.35;;;;;;;;;;5092289;28;20581;-65
2023/09/28 08:29:56;;;;;;;23.55;4.78;;;;;;;;;;5088316;28;20215;-65
2023/09/28 08:32:21;;;;;;;22.00;4.32;;;;;;;;;;5088883;28;20421;-65
2023/09/28 08:34:46;;;;;;;22.63;4.57;;;;;;;;;;5091983;28;20214;-64
2023/09/28 08:37:12;;;;;;;22.02;4.53;;;;;;;;;;5092763;28;20192;-64
2023/09/28 08:39:37;;;;;;;21.90;3.88;;;;;;;;;;5085049;28;20280;-66
2023/09/28 08:42:05;;;;;;;22.95;4.57;;;;;;;;;;5088723;28;20273;-64
2023/09/28 08:44:32;;;;;;;26.83;4.20;;;;;;;;;;5080960;28;20276;-65
2023/09/28 08:46:58;;;;;;;24.17;4.95;;;;;;;;;;5082328;28;20188;-65
2023/09/28 08:49:29;;;;;;;21.67;4.07;;;;;;;;;;5085008;28;20227;-64
2023/09/28 08:51:55;;;;;;;28.50;4.65;;;;;;;;;;5085321;28;20184;-64
2023/09/28 08:54:23;;;;;;;31.45;4.93;;;;;;;;;;5086692;28;20287;-65
2023/09/28 08:56:50;;;;;;;24.98;4.20;;;;;;;;;;5088674;28;20283;-65
2023/09/28 08:59:17;;;;;;;22.77;4.68;;;;;;;;;;5087580;28;20184;-65
2023/09/28 09:01:42;;;;;;;27.63;4.60;;;;;;;;;;5086881;28;20286;-65
2023/09/28 09:04:09;;;;;;;26.38;4.50;;;;;;;;;;5091520;28;20196;-65
2023/09/28 09:06:34;;;;;;;24.70;4.63;;;;;;;;;;5084466;28;20233;-65
2023/09/28 09:09:03;;;;;;;27.77;4.45;;;;;;;;;;5086188;28;20204;-65
2023/09/28 09:11:30;;;;;;;19.17;4.25;;;;;;;;;;5083654;28;20188;-64
2023/09/28 09:13:56;;;;;;;24.10;4.85;;;;;;;;;;5084770;28;20614;-64
2023/09/28 09:16:23;;;;;;;27.63;4.13;;;;;;;;;;5086677;28;20212;-65
2023/09/28 09:18:48;;;;;;;21.85;4.18;;;;;;;;;;5084959;28;20193;-65
2023/09/28 09:21:14;;;;;;;17.33;4.30;;;;;;;;;;5085653;28;20622;-65
2023/09/28 09:23:41;;;;;;;23.13;4.82;;;;;;;;;;5095304;28;20188;-65
2023/09/28 09:26:17;;;;;;;27.10;4.70;;;;;;;;;;5095523;28;20212;-64
2023/09/28 09:28:43;;;;;;;26.90;4.78;;;;;;;;;;5081215;28;20249;-65
2023/09/28 09:31:09;;;;;;;23.45;4.45;;;;;;;;;;5094468;28;20192;-64
2023/09/28 09:33:35;;;;;;;24.35;4.57;;;;;;;;;;5085108;28;20257;-65
2023/09/28 09:36:01;;;;;;;22.73;3.97;;;;;;;;;;5085806;28;20206;-65
2023/09/28 09:38:30;;;;;;;20.20;3.88;;;;;;;;;;5080703;28;20183;-65
2023/09/28 09:41:04;;;;;;;21.85;4.50;;;;;;;;;;5082668;28;20553;-65
2023/09/28 09:43:31;;;;;;;23.67;4.03;;;;;;;;;;5093767;28;20527;-65
2023/09/28 09:45:57;;;;;;;28.58;4.43;;;;;;;;;;5090630;28;20664;-65
2023/09/28 09:48:24;;;;;;;25.55;5.18;;;;;;;;;;5089570;28;20214;-65
2023/09/28 09:50:50;;;;;;;28.48;4.60;;;;;;;;;;5090426;28;20254;-65
2023/09/28 09:53:16;;;;;;;26.52;4.50;;;;;;;;;;5076006;28;20197;-65
2023/09/28 09:55:43;;;;;;;25.58;4.78;;;;;;;;;;5086035;28;20196;-66
2023/09/28 09:58:13;;;;;;;19.13;4.30;;;;;;;;;;5081765;28;20272;-64
2023/09/28 10:00:40;;;;;;;22.65;4.85;;;;;;;;;;5084285;28;20311;-65
2023/09/28 10:03:08;;;;;;;20.90;4.85;;;;;;;;;;5062637;28;20263;-64
2023/09/28 10:05:35;;;;;;;22.13;4.57;;;;;;;;;;5072175;28;20192;-66
2023/09/28 10:08:03;;;;;;;25.67;4.50;;;;;;;;;;5083786;28;20190;-63
2023/09/28 10:10:30;;;;;;;21.58;4.18;;;;;;;;;;5080529;28;20272;-64
2023/09/28 10:12:56;;;;;;;21.88;4.15;;;;;;;;;;5085136;28;20192;-64
2023/09/28 10:15:22;;;;;;;23.40;4.40;;;;;;;;;;5083350;28;20189;-64
2023/09/28 10:17:48;;;;;;;23.95;4.05;;;;;;;;;;5085802;28;20180;-64
2023/09/28 10:20:14;;;;;;;27.02;3.72;;;;;;;;;;5087482;28;20199;-64
2023/09/28 10:22:47;;;;;;;26.98;4.43;;;;;;;;;;5082182;28;20211;-64
2023/09/28 10:25:15;;;;;;;32.28;5.15;;;;;;;;;;5081500;28;20200;-64
2023/09/28 10:27:44;;;;;;;23.33;4.53;;;;;;;;;;5083572;28;20187;-64
2023/09/28 10:30:23;;;;;;;23.52;4.43;;;;;;;;;;5090593;28;20609;-64
2023/09/28 10:32:54;;;;;;;22.38;4.72;;;;;;;;;;5091296;28;20194;-65
2023/09/28 10:35:22;;;;;;;23.40;4.72;;;;;;;;;;5087776;28;20562;-64
2023/09/28 10:38:19;;;;;;;19.23;4.13;;;;;;;;;;5080484;28;20221;-64
2023/09/28 10:41:01;;;;;;;21.00;4.15;;;;;;;;;;5076264;28;20240;-64
2023/09/28 10:43:30;;;;;;;19.95;4.25;;;;;;;;;;5079561;28;20175;-64
2023/09/28 10:45:57;;;;;;;22.50;4.47;;;;;;;;;;5077210;28;20193;-64
2023/09/28 10:48:23;;;;;;;20.42;3.92;;;;;;;;;;5076826;28;20211;-64
2023/09/28 10:50:50;;;;;;;23.13;4.10;;;;;;;;;;5089178;28;20188;-64
2023/09/28 10:53:17;;;;;;;25.23;4.72;;;;;;;;;;5084620;28;20198;-63
2023/09/28 10:55:42;;;;;;;23.30;4.55;;;;;;;;;;5082161;28;20196;-64
2023/09/28 10:58:08;;;;;;;27.08;4.80;;;;;;;;;;5092092;28;20194;-64
2023/09/28 11:00:34;;;;;;;26.67;4.68;;;;;;;;;;5096712;28;20591;-63
2023/09/28 11:03:00;;;;;;;31.10;5.25;;;;;;;;;;5088837;28;20590;-63
2023/09/28 11:05:25;;;;;;;23.58;3.92;;;;;;;;;;5082215;28;20187;-64
2023/09/28 11:07:51;;;;;;;23.25;4.28;;;;;;;;;;5096794;28;20378;-65
2023/09/28 11:10:16;;;;;;;29.15;4.88;;;;;;;;;;5079605;28;20244;-64
2023/09/28 11:12:42;;;;;;;23.70;4.55;;;;;;;;;;5085691;28;20724;-64
2023/09/28 11:15:09;;;;;;;21.80;3.92;;;;;;;;;;5097428;28;20191;-64
2023/09/28 11:17:35;;;;;;;18.58;3.50;;;;;;;;;;5086990;28;20188;-64
2023/09/28 11:20:01;;;;;;;24.45;4.47;;;;;;;;;;5087351;28;20183;-65
2023/09/28 11:22:30;;;;;;;20.35;4.10;;;;;;;;;;5088721;28;20215;-64
2023/09/28 11:24:56;;;;;;;23.38;4.35;;;;;;;;;;5091699;28;20212;-64
2023/09/28 11:27:23;;;;;;;25.45;4.93;;;;;;;;;;5082479;28;20677;-65
2023/09/28 11:29:55;;;;;;;23.67;4.40;;;;;;;;;;5089201;28;20540;-65
2023/09/28 11:32:20;;;;;;;20.90;3.80;;;;;;;;;;5088898;28;20602;-67
2023/09/28 11:34:45;;;;;;;21.83;4.43;;;;;;;;;;5088055;28;20211;-66
2023/09/28 11:37:14;;;;;;;21.20;4.15;;;;;;;;;;5095168;28;20282;-64
2023/09/28 11:39:40;;;;;;;22.40;4.90;;;;;;;;;;5081923;28;20647;-66
2023/09/28 11:42:07;;;;;;;15.25;3.88;;;;;;;;;;5087665;28;20238;-65
2023/09/28 11:44:32;;;;;;;25.50;4.28;;;;;;;;;;5087440;28;20191;-64
2023/09/28 11:46:58;;;;;;;19.30;3.47;;;;;;;;;;5085275;28;20196;-67
2023/09/28 11:49:24;;;;;;;21.25;4.25;;;;;;;;;;5079529;28;20200;-64
2023/09/28 11:51:54;;;;;;;22.23;4.00;;;;;;;;;;5086394;28;20184;-65
2023/09/28 11:54:21;;;;;;;15.63;3.65;;;;;;;;;;5078389;28;20184;-64
2023/09/28 11:56:46;;;;;;;14.15;3.42;;;;;;;;;;5088192;28;20226;-65
2023/09/28 11:59:16;;;;;;;15.23;3.35;;;;;;;;;;5088674;28;20643;-64
2023/09/28 12:01:43;;;;;;;14.55;3.42;;;;;;;;;;5075708;28;20225;-65
2023/09/28 12:04:09;;;;;;;16.92;4.22;;;;;;;;;;5088133;28;20302;-64
2023/09/28 12:06:35;;;;;;;14.60;3.95;;;;;;;;;;5088724;28;20219;-64
2023/09/28 12:09:02;;;;;;;23.63;4.32;;;;;;;;;;5088786;28;20740;-63
2023/09/28 12:11:27;;;;;;;20.60;3.88;;;;;;;;;;5089517;28;20192;-65
2023/09/28 12:13:53;;;;;;;21.88;4.07;;;;;;;;;;5080051;28;20199;-65
2023/09/28 12:16:22;;;;;;;18.10;3.42;;;;;;;;;;5090454;28;20191;-65
2023/09/28 12:18:47;;;;;;;14.95;3.53;;;;;;;;;;5082098;28;20192;-64
2023/09/28 12:21:14;;;;;;;22.88;4.65;;;;;;;;;;5082651;28;20790;-64
2023/09/28 12:23:40;;;;;;;17.80;3.20;;;;;;;;;;5085914;28;20557;-64
2023/09/28 12:26:05;;;;;;;23.80;4.03;;;;;;;;;;5086686;28;20196;-65
2023/09/28 12:28:31;;;;;;;15.35;3.60;;;;;;;;;;5082629;28;20752;-67
2023/09/28 12:30:56;;;;;;;21.27;4.47;;;;;;;;;;5087670;28;20199;-67
2023/09/28 12:33:22;;;;;;;17.60;3.83;;;;;;;;;;5084278;28;20238;-66
2023/09/28 12:35:47;;;;;;;16.13;3.47;;;;;;;;;;5082997;28;20204;-63
2023/09/28 12:38:13;;;;;;;19.27;4.18;;;;;;;;;;5086556;28;20271;-66
2023/09/28 12:40:39;;;;;;;14.60;3.80;;;;;;;;;;5087839;28;20330;-67
2023/09/28 12:43:05;;;;;;;24.58;4.38;;;;;;;;;;5086435;28;20719;-64
2023/09/28 12:45:34;;;;;;;12.77;3.50;;;;;;;;;;5084838;28;20400;-66
2023/09/28 12:48:04;;;;;;;14.70;3.22;;;;;;;;;;5086743;28;20222;-64
2023/09/28 12:50:30;;;;;;;22.45;4.25;;;;;;;;;;5088992;28;20551;-64
2023/09/28 12:52:57;;;;;;;18.73;3.70;;;;;;;;;;5089434;28;20192;-66
2023/09/28 12:55:23;;;;;;;19.63;4.15;;;;;;;;;;5087141;28;20596;-65
2023/09/28 12:57:50;;;;;;;17.10;3.92;;;;;;;;;;5087224;28;20287;-64
2023/09/28 13:00:17;;;;;;;21.30;3.78;;;;;;;;;;5089165;28;20188;-65
2023/09/28 13:02:43;;;;;;;16.52;3.97;;;;;;;;;;5080558;28;20223;-64
2023/09/28 13:05:08;;;;;;;17.42;3.55;;;;;;;;;;5091236;28;20266;-65
2023/09/28 13:07:34;;;;;;;16.80;4.00;;;;;;;;;;5072891;28;20615;-66
2023/09/28 13:09:59;;;;;;;17.27;3.58;;;;;;;;;;5089877;28;20202;-64
2023/09/28 13:12:25;;;;;;;19.15;3.70;;;;;;;;;;5086569;28;20196;-64
2023/09/28 13:14:53;;;;;;;15.95;3.45;;;;;;;;;;5091751;28;20257;-66
2023/09/28 13:17:19;;;;;;;20.77;4.05;;;;;;;;;;5082463;28;20617;-65
2023/09/28 13:19:45;;;;;;;16.80;3.28;;;;;;;;;;5088344;28;20224;-64
2023/09/28 13:22:12;;;;;;;16.25;3.53;;;;;;;;;;5091813;28;20269;-65
2023/09/28 13:24:38;;;;;;;17.50;3.47;;;;;;;;;;5083562;28;20218;-64
2023/09/28 13:27:05;;;;;;;18.10;3.83;;;;;;;;;;5088490;28;20188;-64
2023/09/28 13:29:32;;;;;;;19.58;3.42;;;;;;;;;;5087288;28;20191;-64
2023/09/28 13:31:57;;;;;;;13.65;3.28;;;;;;;;;;5094028;28;20740;-65
2023/09/28 13:34:23;;;;;;;17.17;3.88;;;;;;;;;;5082915;28;20723;-64
2023/09/28 13:36:48;;;;;;;15.77;3.58;;;;;;;;;;5090463;28;20192;-64
2023/09/28 13:42:04;;;;;;;17.00;3.75;;;;;;;;;;5086845;28;20215;-64
2023/09/28 13:44:33;;;;;;;17.50;3.67;;;;;;;;;;5089569;28;20192;-64
2023/09/28 13:47:00;;;;;;;19.05;4.38;;;;;;;;;;5089456;28;20403;-64
2023/09/28 13:49:28;;;;;;;16.45;4.03;;;;;;;;;;5090109;28;20226;-63
2023/09/28 13:51:58;;;;;;;19.40;4.15;;;;;;;;;;5103215;28;20259;-64
2023/09/28 13:54:24;;;;;;;17.02;3.55;;;;;;;;;;5090029;28;20180;-63
2023/09/28 13:56:51;;;;;;;17.75;3.42;;;;;;;;;;5088255;28;20200;-64
2023/09/28 13:59:17;;;;;;;16.35;3.67;;;;;;;;;;5086291;28;20648;-64
2023/09/28 14:01:47;;;;;;;17.58;3.92;;;;;;;;;;5083769;28;20252;-63
2023/09/28 14:04:13;;;;;;;16.52;3.42;;;;;;;;;;5070842;28;20196;-64
2023/09/28 14:06:40;;;;;;;18.63;4.40;;;;;;;;;;5063959;28;20276;-65
2023/09/28 14:09:10;;;;;;;19.65;4.15;;;;;;;;;;5093459;28;20681;-64
2023/09/28 14:11:36;;;;;;;19.85;4.10;;;;;;;;;;5090244;28;20176;-64
2023/09/28 14:14:03;;;;;;;15.40;3.47;;;;;;;;;;5089598;28;20347;-64
2023/09/28 14:16:31;;;;;;;23.58;4.82;;;;;;;;;;4384095;28;10000737;-64
2023/09/28 14:18:57;;;;;;;19.25;4.28;;;;;;;;;;5082087;28;20691;-64
2023/09/28 14:21:22;;;;;;;22.55;3.67;;;;;;;;;;5079771;28;20192;-64
2023/09/28 14:23:48;;;;;;;22.67;3.88;;;;;;;;;;5085435;28;20307;-63
2023/09/28 14:26:14;;;;;;;18.40;3.70;;;;;;;;;;5087323;28;20214;-64
2023/09/28 14:28:39;;;;;;;12.90;3.67;;;;;;;;;;5085824;28;20341;-63
2023/09/28 14:31:04;;;;;;;14.00;4.30;;;;;;;;;;5085853;28;20188;-63
2023/09/28 14:33:32;;;;;;;16.65;3.95;;;;;;;;;;5092553;28;20187;-63
2023/09/28 14:35:57;;;;;;;17.48;3.65;;;;;;;;;;5095587;28;20280;-64